Time;durP1;ratioP1;P1;durP2;ratioP2;P2;SDS_P1;SDS_P2;PMS_P1;PMS_P2;Temp;Humidity;BMP_temperature;BMP_pressure;BME280_temperature;BME280_humidity;BME280_pressure;Samples;Min_cycle;Max_cycle;Signal;HPM_P1;HPM_P2
2021/06/11 00:03:49;;;;;;;8.73;6.57;;;;;;;14.48;100.00;94628.63;10531165;28;20877;-74
2021/06/11 00:08:49;;;;;;;8.83;6.77;;;;;;;14.37;100.00;94627.19;10531679;28;20842;-74
2021/06/11 00:13:50;;;;;;;9.60;7.27;;;;;;;14.41;100.00;94622.78;10529406;28;20036;-74
2021/06/11 00:18:50;;;;;;;12.40;7.65;;;;;;;14.38;100.00;94628.00;10530141;28;20023;-74
2021/06/11 00:23:50;;;;;;;9.60;6.37;;;;;;;14.30;100.00;94621.38;10529705;28;20039;-74
2021/06/11 00:28:51;;;;;;;15.13;8.27;;;;;;;14.26;100.00;94617.69;10528910;28;20031;-74
2021/06/11 00:33:51;;;;;;;14.10;7.70;;;;;;;14.14;100.00;94610.84;10530407;28;20301;-74
2021/06/11 00:38:52;;;;;;;9.20;6.90;;;;;;;14.08;100.00;94617.47;10530943;28;20491;-74
2021/06/11 00:43:52;;;;;;;10.57;7.13;;;;;;;14.08;100.00;94616.66;10497105;28;20025;-74
2021/06/11 00:48:52;;;;;;;15.10;6.93;;;;;;;14.07;100.00;94615.84;10486173;28;20277;-74
2021/06/11 00:53:54;;;;;;;12.40;8.20;;;;;;;13.85;100.00;94611.91;10486201;28;20111;-74
2021/06/11 00:58:54;;;;;;;12.10;7.68;;;;;;;13.95;100.00;94613.66;10487370;28;20746;-74
2021/06/11 01:03:55;;;;;;;9.25;6.75;;;;;;;13.99;100.00;94611.13;10487114;28;20028;-74
2021/06/11 01:08:56;;;;;;;9.53;7.13;;;;;;;13.93;100.00;94604.22;10486818;28;20029;-74
2021/06/11 01:13:56;;;;;;;12.45;7.47;;;;;;;13.83;100.00;94600.59;10486754;28;20199;-74
2021/06/11 01:18:57;;;;;;;14.23;7.82;;;;;;;13.87;100.00;94603.53;10486866;28;20052;-74
2021/06/11 01:24:16;;;;;;;11.07;7.45;;;;;;;13.87;100.00;94610.81;10487229;28;20104;-74
2021/06/11 01:29:26;;;;;;;12.70;7.30;;;;;;;13.84;100.00;94615.72;10492807;28;20471;-75
2021/06/11 01:34:32;;;;;;;9.63;7.93;;;;;;;13.78;100.00;94616.09;10494432;28;20127;-74
2021/06/11 01:39:34;;;;;;;11.88;7.80;;;;;;;13.70;100.00;94614.88;10493547;28;20033;-74
2021/06/11 01:44:38;;;;;;;17.88;7.68;;;;;;;13.39;100.00;94619.97;10493146;28;20021;-74
2021/06/11 01:49:43;;;;;;;13.45;9.02;;;;;;;13.08;100.00;94620.38;10493316;28;20141;-74
2021/06/11 01:54:45;;;;;;;12.10;8.52;;;;;;;13.16;100.00;94617.03;10501198;28;20016;-75
2021/06/11 01:59:46;;;;;;;14.07;9.60;;;;;;;13.26;100.00;94622.28;10492976;28;20115;-74
2021/06/11 02:04:46;;;;;;;11.77;7.70;;;;;;;13.30;100.00;94615.19;10490264;28;20028;-75
2021/06/11 02:09:48;;;;;;;14.95;8.40;;;;;;;13.22;100.00;94612.38;10491174;28;20539;-73
2021/06/11 02:14:49;;;;;;;13.27;8.23;;;;;;;13.14;100.00;94608.41;10491116;28;20059;-73
2021/06/11 02:19:50;;;;;;;16.05;7.57;;;;;;;12.94;100.00;94614.91;10490712;28;20104;-74
2021/06/11 02:24:51;;;;;;;17.63;8.00;;;;;;;12.92;100.00;94604.41;10491739;28;20112;-73
2021/06/11 02:29:51;;;;;;;17.30;8.00;;;;;;;13.04;100.00;94608.56;10491680;28;20028;-74
2021/06/11 02:34:52;;;;;;;11.85;7.47;;;;;;;13.09;100.00;94601.22;10490731;28;20290;-74
2021/06/11 02:39:52;;;;;;;10.57;7.75;;;;;;;12.98;100.00;94611.34;10490432;28;20024;-74
2021/06/11 02:44:54;;;;;;;11.10;7.30;;;;;;;13.03;100.00;94623.94;10490645;28;20029;-74
2021/06/11 02:50:03;;;;;;;8.48;6.57;;;;;;;13.05;100.00;94620.97;10489957;28;20021;-74
2021/06/11 02:55:06;;;;;;;12.23;6.10;;;;;;;12.98;100.00;94624.03;10488883;28;20023;-74
2021/06/11 03:00:10;;;;;;;10.13;7.65;;;;;;;12.99;100.00;94618.34;10489736;28;20438;-75
2021/06/11 03:05:14;;;;;;;12.18;6.93;;;;;;;12.90;100.00;94620.06;10488412;28;20116;-74
2021/06/11 03:10:16;;;;;;;15.32;6.80;;;;;;;12.94;100.00;94626.50;10488339;28;20506;-74
2021/06/11 03:15:17;;;;;;;10.82;7.72;;;;;;;13.08;100.00;94626.56;10489363;28;20391;-74
2021/06/11 03:20:22;;;;;;;14.95;8.82;;;;;;;13.12;100.00;94622.19;10489028;28;20029;-74
2021/06/11 03:25:28;;;;;;;16.40;7.55;;;;;;;13.15;100.00;94629.72;10489074;28;20079;-74
2021/06/11 03:30:30;;;;;;;11.52;7.70;;;;;;;13.22;100.00;94631.25;10488854;28;20112;-74
2021/06/11 03:35:40;;;;;;;10.43;7.45;;;;;;;13.08;100.00;94629.28;10487854;28;20045;-74
2021/06/11 03:40:43;;;;;;;10.48;8.25;;;;;;;13.19;100.00;94639.94;10487393;28;20032;-75
2021/06/11 03:45:44;;;;;;;21.70;8.02;;;;;;;13.11;100.00;94630.59;10487415;28;20025;-75
2021/06/11 03:50:48;;;;;;;10.18;7.93;;;;;;;13.21;100.00;94637.75;10486117;28;20211;-75
2021/06/11 03:55:56;;;;;;;11.05;8.10;;;;;;;13.29;100.00;94635.19;10487226;28;20114;-74
2021/06/11 04:01:00;;;;;;;16.98;8.60;;;;;;;13.43;100.00;94637.97;10486716;28;20107;-75
2021/06/11 04:06:06;;;;;;;30.40;9.48;;;;;;;13.61;100.00;94640.97;10494704;28;20761;-74
2021/06/11 04:11:10;;;;;;;15.48;9.50;;;;;;;13.87;100.00;94635.94;10486148;28;20024;-74
2021/06/11 04:16:18;;;;;;;20.63;8.30;;;;;;;14.22;100.00;94641.00;10486991;28;20020;-75
2021/06/11 04:21:22;;;;;;;13.57;7.93;;;;;;;14.73;100.00;94639.25;10514594;28;20040;-75
2021/06/11 04:26:26;;;;;;;20.73;7.63;;;;;;;15.20;100.00;94632.56;10515711;28;20025;-74
2021/06/11 04:31:29;;;;;;;15.23;8.15;;;;;;;15.71;100.00;94624.34;10484482;28;20036;-75
2021/06/11 04:36:30;;;;;;;15.45;7.93;;;;;;;16.35;100.00;94634.16;10487156;28;20117;-74
2021/06/11 04:41:31;;;;;;;17.40;7.75;;;;;;;16.86;100.00;94635.47;10486281;28;20155;-75
2021/06/11 04:46:32;;;;;;;11.13;7.75;;;;;;;16.77;100.00;94636.56;10486073;28;20028;-74
2021/06/11 04:51:34;;;;;;;15.15;8.98;;;;;;;16.55;100.00;94630.91;10486109;28;20031;-74
2021/06/11 04:56:35;;;;;;;13.45;9.45;;;;;;;16.64;100.00;94632.84;10484642;28;20096;-74
2021/06/11 05:01:35;;;;;;;13.70;9.40;;;;;;;17.52;100.00;94639.25;10486092;28;20032;-75
2021/06/11 05:06:36;;;;;;;13.57;9.20;;;;;;;18.36;100.00;94647.97;10490160;28;20138;-74
2021/06/11 05:11:36;;;;;;;16.17;8.93;;;;;;;18.92;100.00;94641.69;10492325;28;20025;-74
2021/06/11 05:16:36;;;;;;;13.97;8.73;;;;;;;19.51;100.00;94649.03;10492972;28;20096;-75
2021/06/11 05:21:37;;;;;;;18.97;9.03;;;;;;;20.13;100.00;94652.03;10491964;28;20086;-75
2021/06/11 05:26:37;;;;;;;24.83;8.93;;;;;;;20.78;100.00;94648.81;10491393;28;20029;-75
2021/06/11 05:31:37;;;;;;;14.23;7.93;;;;;;;21.47;100.00;94636.09;10492143;28;20049;-75
2021/06/11 05:36:38;;;;;;;10.37;6.50;;;;;;;22.16;100.00;94646.28;10492671;28;20099;-75
2021/06/11 05:41:38;;;;;;;14.88;5.35;;;;;;;22.74;100.00;94645.06;10493103;28;20028;-75
2021/06/11 05:46:39;;;;;;;10.18;5.22;;;;;;;23.84;92.51;94647.97;10492294;28;20031;-75
2021/06/11 05:51:39;;;;;;;11.73;5.07;;;;;;;23.78;87.05;94652.16;10492805;28;20025;-75
2021/06/11 05:56:40;;;;;;;7.77;4.97;;;;;;;23.48;89.26;94658.19;10492360;28;20372;-72
2021/06/11 06:01:40;;;;;;;10.47;5.20;;;;;;;23.32;89.34;94659.00;10491680;28;20116;-73
2021/06/11 06:06:40;;;;;;;7.13;5.10;;;;;;;23.18;89.31;94664.19;10491358;28;20036;-73
2021/06/11 06:11:41;;;;;;;10.63;5.33;;;;;;;23.35;90.66;94658.28;10492802;28;20107;-73
2021/06/11 06:16:41;;;;;;;10.80;5.53;;;;;;;22.59;98.38;94654.84;10491333;28;20037;-73
2021/06/11 06:21:42;;;;;;;6.87;4.90;;;;;;;22.73;99.43;94649.75;10492066;28;20024;-75
2021/06/11 06:26:42;;;;;;;13.70;5.53;;;;;;;23.03;91.91;94647.34;10494162;28;20293;-75
2021/06/11 06:31:42;;;;;;;9.40;4.57;;;;;;;22.60;93.07;94653.72;10494548;28;20131;-75
2021/06/11 06:36:44;;;;;;;11.30;4.63;;;;;;;22.92;98.53;94657.25;10494647;28;20270;-75
2021/06/11 06:41:44;;;;;;;6.38;4.45;;;;;;;23.48;86.32;94650.75;10493239;28;20028;-78
2021/06/11 06:46:44;;;;;;;12.23;4.93;;;;;;;25.14;79.56;94642.91;10493135;28;20727;-75
2021/06/11 06:51:46;;;;;;;9.25;3.28;;;;;;;26.38;66.06;94644.19;10506318;28;20108;-75
2021/06/11 06:56:47;;;;;;;10.57;3.78;;;;;;;27.69;62.00;94640.59;10532217;28;20021;-75
2021/06/11 07:01:49;;;;;;;10.30;3.33;;;;;;;27.94;53.90;94637.97;10530132;28;20015;-75
2021/06/11 07:06:50;;;;;;;5.82;3.70;;;;;;;28.19;53.63;94638.09;10531834;28;20278;-77
2021/06/11 07:11:52;;;;;;;8.05;3.55;;;;;;;28.67;52.98;94639.03;10532366;28;20027;-77
2021/06/11 07:16:52;;;;;;;7.68;3.53;;;;;;;28.88;47.71;94627.19;10531499;28;20031;-77
2021/06/11 07:21:54;;;;;;;6.65;3.83;;;;;;;27.55;51.70;94622.78;10529992;28;20039;-76
2021/06/11 07:26:54;;;;;;;5.03;3.15;;;;;;;28.60;50.47;94614.88;10532122;28;20376;-76
2021/06/11 07:31:55;;;;;;;5.27;3.13;;;;;;;30.29;43.99;94620.22;10532792;28;20048;-76
2021/06/11 07:36:55;;;;;;;13.82;3.25;;;;;;;31.58;41.45;94611.38;10532545;28;20028;-76
2021/06/11 07:41:56;;;;;;;13.57;3.57;;;;;;;30.70;42.53;94604.16;10532440;28;20027;-76
2021/06/11 07:46:56;;;;;;;6.90;3.42;;;;;;;31.31;39.39;94600.91;10531804;28;20035;-76
2021/06/11 07:51:57;;;;;;;7.47;2.83;;;;;;;32.02;39.86;94601.38;10531349;28;20019;-76
2021/06/11 07:56:57;;;;;;;8.00;3.07;;;;;;;31.85;39.56;94606.72;10531398;28;20028;-76
2021/06/11 08:01:57;;;;;;;7.37;3.73;;;;;;;33.06;37.12;94604.75;10531460;28;20764;-76
2021/06/11 08:06:58;;;;;;;6.17;3.40;;;;;;;33.93;35.75;94598.47;10530894;28;20840;-76
2021/06/11 08:11:58;;;;;;;18.40;4.57;;;;;;;32.07;37.98;94602.91;10530563;28;20452;-76
2021/06/11 08:16:59;;;;;;;7.03;2.97;;;;;;;29.11;44.30;94608.22;10530910;28;20038;-76
2021/06/11 08:21:59;;;;;;;10.43;3.30;;;;;;;28.61;46.10;94605.41;10530932;28;20028;-76
2021/06/11 08:26:59;;;;;;;12.67;3.27;;;;;;;30.23;42.15;94596.09;10530015;28;20297;-76
2021/06/11 08:32:00;;;;;;;6.53;3.27;;;;;;;31.59;38.89;94596.31;10530384;28;20074;-77
2021/06/11 08:37:00;;;;;;;7.38;3.15;;;;;;;32.02;36.75;94591.03;10529644;28;20032;-77
2021/06/11 08:42:02;;;;;;;5.50;2.50;;;;;;;33.77;35.52;94578.88;10528811;28;20434;-75
2021/06/11 08:47:02;;;;;;;7.82;2.45;;;;;;;32.81;35.04;94574.53;10528405;28;20039;-76
2021/06/11 08:52:03;;;;;;;6.45;2.60;;;;;;;32.35;35.28;94568.41;10529882;28;20478;-76
2021/06/11 08:57:04;;;;;;;7.82;2.70;;;;;;;32.60;36.79;94561.69;10543171;28;20031;-76
2021/06/11 09:02:04;;;;;;;7.38;2.70;;;;;;;33.26;35.45;94548.34;10529137;28;20494;-76
2021/06/11 09:07:27;;;;;;;3.00;1.83;;;;;;;34.73;32.25;94550.13;10528857;28;20039;-76
2021/06/11 09:12:29;;;;;;;2.90;2.00;;;;;;;36.19;28.67;94557.91;10530348;28;20024;-77
2021/06/11 09:17:35;;;;;;;4.18;2.47;;;;;;;36.00;30.13;94554.06;10530382;28;20043;-77
2021/06/11 09:22:51;;;;;;;6.30;4.00;;;;;;;35.49;28.91;94546.28;10529864;28;20024;-77
2021/06/11 09:27:59;;;;;;;4.15;2.13;;;;;;;36.26;29.96;94545.72;10530976;28;20039;-79
2021/06/11 09:33:02;;;;;;;2.55;1.48;;;;;;;34.85;29.65;94545.88;10530577;28;20051;-79
2021/06/11 09:38:15;;;;;;;3.85;1.75;;;;;;;37.56;27.35;94530.38;10528902;28;20070;-78
2021/06/11 09:43:17;;;;;;;7.68;2.85;;;;;;;36.67;29.02;94527.28;10530889;28;20111;-79
2021/06/11 09:48:27;;;;;;;5.78;2.10;;;;;;;37.39;27.89;94524.94;10529865;28;20036;-80
2021/06/11 09:53:29;;;;;;;2.83;1.67;;;;;;;37.54;27.82;94516.81;10515574;28;20012;-80
2021/06/11 09:58:34;;;;;;;2.15;1.88;;;;;;;37.60;27.00;94514.97;10518694;28;20064;-80
2021/06/11 10:03:37;;;;;;;2.40;2.00;;;;;;;33.29;30.27;94520.41;10512230;28;20122;-79
2021/06/11 10:08:39;;;;;;;3.85;2.67;;;;;;;29.31;36.92;94510.97;10525712;28;20028;-79
2021/06/11 10:13:40;;;;;;;4.32;2.35;;;;;;;32.11;34.22;94506.34;10512215;28;20021;-78
2021/06/11 10:18:41;;;;;;;4.47;2.63;;;;;;;36.01;29.18;94494.09;10514590;28;20097;-78
2021/06/11 10:23:43;;;;;;;2.78;1.65;;;;;;;34.45;28.69;94481.81;10516643;28;20016;-79
2021/06/11 10:28:47;;;;;;;4.43;1.95;;;;;;;36.43;27.82;94480.03;10519681;28;20019;-78
2021/06/11 10:33:50;;;;;;;2.58;2.00;;;;;;;37.50;27.76;94479.72;10512659;28;20064;-78
2021/06/11 10:38:51;;;;;;;4.40;2.67;;;;;;;37.56;26.48;94477.09;10516997;28;20052;-77
2021/06/11 10:43:52;;;;;;;4.93;2.15;;;;;;;33.84;30.33;94473.59;10514556;28;20028;-78
2021/06/11 10:48:55;;;;;;;4.43;2.70;;;;;;;34.85;30.93;94473.28;10512665;28;20394;-78
2021/06/11 10:54:16;;;;;;;4.50;2.63;;;;;;;33.07;31.79;94478.22;10510757;28;20028;-78
2021/06/11 10:59:49;;;;;;;4.43;2.58;;;;;;;30.89;35.35;94472.41;10523008;28;20024;-79
2021/06/11 11:04:50;;;;;;;5.90;2.83;;;;;;;29.65;36.09;94466.13;10511802;28;20043;-79
2021/06/11 11:09:56;;;;;;;6.30;3.15;;;;;;;29.08;38.22;94484.50;10519567;28;20055;-79
2021/06/11 11:15:01;;;;;;;12.48;2.80;;;;;;;27.52;41.91;94515.09;10510829;28;20111;-79
2021/06/11 11:20:04;;;;;;;15.27;3.10;;;;;;;26.46;43.33;94514.75;10534839;28;20039;-79
2021/06/11 11:25:13;;;;;;;3.97;2.55;;;;;;;24.98;50.92;94524.84;10535522;28;20109;-79
2021/06/11 11:30:13;;;;;;;7.40;2.60;;;;;;;24.29;54.61;94539.44;10533720;28;20502;-79
2021/06/11 11:35:16;;;;;;;8.55;2.90;;;;;;;23.51;59.02;94536.78;10533351;28;20056;-78
2021/06/11 11:40:17;;;;;;;5.95;2.63;;;;;;;23.09;61.82;94537.44;10532474;28;20024;-78
2021/06/11 11:45:17;;;;;;;14.60;3.05;;;;;;;23.07;64.38;94554.25;10532314;28;20467;-80
2021/06/11 11:50:17;;;;;;;3.03;2.50;;;;;;;22.88;63.35;94563.19;10532575;28;20020;-80
2021/06/11 11:55:18;;;;;;;3.97;2.33;;;;;;;22.34;78.40;94565.44;10533957;28;20049;-78
2021/06/11 12:00:19;;;;;;;9.13;3.00;;;;;;;22.14;85.35;94569.19;10532431;28;20024;-77
2021/06/11 12:05:19;;;;;;;7.28;2.70;;;;;;;21.99;79.20;94578.97;10533891;28;21120;-78
2021/06/11 12:10:20;;;;;;;4.53;2.77;;;;;;;21.94;84.41;94576.50;10533260;28;20115;-79
2021/06/11 12:15:20;;;;;;;5.30;3.40;;;;;;;21.99;84.74;94578.97;10533649;28;20032;-79
2021/06/11 12:20:21;;;;;;;12.60;3.20;;;;;;;21.83;85.22;94576.19;10533682;28;20030;-78
2021/06/11 12:25:21;;;;;;;9.30;3.00;;;;;;;21.29;89.47;94580.91;10532829;28;20035;-79
2021/06/11 12:30:22;;;;;;;7.93;3.22;;;;;;;21.42;88.98;94589.88;10532421;28;20023;-79
2021/06/11 12:35:22;;;;;;;9.43;2.67;;;;;;;21.11;87.36;94585.03;10531316;28;20071;-79
2021/06/11 12:40:22;;;;;;;7.90;2.30;;;;;;;21.46;78.80;94562.63;10531712;28;20031;-79
2021/06/11 12:45:23;;;;;;;2.43;1.97;;;;;;;21.44;73.43;94556.72;10532981;28;20024;-79
2021/06/11 12:50:24;;;;;;;4.15;2.20;;;;;;;21.28;73.43;94559.38;10532598;28;20052;-79
2021/06/11 12:55:26;;;;;;;3.20;2.70;;;;;;;21.19;80.01;94547.78;10532328;28;20035;-80
2021/06/11 13:00:26;;;;;;;5.60;2.05;;;;;;;21.18;75.95;94538.78;10532370;28;20020;-80
2021/06/11 13:05:27;;;;;;;3.10;2.35;;;;;;;21.07;78.28;94556.81;10532775;28;20028;-80
2021/06/11 13:10:28;;;;;;;3.50;2.80;;;;;;;20.82;84.43;94567.78;10532088;28;20050;-79
2021/06/11 13:15:28;;;;;;;3.43;2.57;;;;;;;20.88;80.51;94558.19;10532647;28;20020;-79
2021/06/11 13:20:28;;;;;;;4.27;2.80;;;;;;;21.01;81.09;94534.38;10528912;28;20501;-79
2021/06/11 13:25:29;;;;;;;3.97;2.58;;;;;;;20.98;72.93;94522.22;10537439;28;20556;-80
2021/06/11 13:30:30;;;;;;;5.75;3.42;;;;;;;21.07;77.76;94524.00;10539587;28;20023;-79
2021/06/11 13:35:31;;;;;;;2.95;2.47;;;;;;;21.45;80.77;94514.56;10538326;28;20059;-79
2021/06/11 13:40:31;;;;;;;26.48;24.33;;;;;;;21.58;73.01;94510.66;10537378;28;20115;-79
2021/06/11 13:45:32;;;;;;;7.45;2.85;;;;;;;21.58;74.97;94510.66;10539281;28;20035;-79
2021/06/11 13:50:32;;;;;;;4.25;2.83;;;;;;;21.92;79.14;94508.44;10539103;28;20107;-79
2021/06/11 13:55:33;;;;;;;5.85;2.70;;;;;;;22.06;77.03;94504.47;10538588;28;20836;-79
2021/06/11 14:00:33;;;;;;;3.83;3.10;;;;;;;21.88;77.79;94506.75;10535988;28;20394;-79
2021/06/11 14:05:38;;;;;;;4.65;3.42;;;;;;;21.79;84.73;94504.19;10538280;28;20285;-79
2021/06/11 14:10:40;;;;;;;4.63;3.05;;;;;;;21.11;78.80;94494.84;10538126;28;20060;-79
2021/06/11 14:15:40;;;;;;;3.28;2.10;;;;;;;20.81;81.61;94500.63;10537000;28;20024;-79
2021/06/11 14:20:42;;;;;;;2.45;2.03;;;;;;;20.58;79.31;94495.63;10537202;28;20058;-79
2021/06/11 14:25:44;;;;;;;1.88;1.50;;;;;;;20.38;79.88;94502.00;10537020;28;20103;-79
2021/06/11 14:30:46;;;;;;;4.97;1.80;;;;;;;20.31;75.61;94503.34;10537137;28;20020;-78
2021/06/11 14:35:48;;;;;;;3.03;2.20;;;;;;;20.54;77.04;94499.38;10535697;28;20040;-79
2021/06/11 14:40:49;;;;;;;4.82;2.00;;;;;;;20.56;73.57;94497.09;10534514;28;20104;-79
2021/06/11 14:45:49;;;;;;;5.38;2.42;;;;;;;20.87;71.89;94493.00;10534143;28;20028;-79
2021/06/11 14:50:50;;;;;;;2.30;2.10;;;;;;;20.97;76.88;94506.16;10532273;28;20028;-79
2021/06/11 14:55:59;;;;;;;8.68;6.15;;;;;;;20.76;77.18;94507.13;10530230;28;20028;-79
2021/06/11 15:01:00;;;;;;;1.73;1.63;;;;;;;20.31;82.50;94497.91;10544530;28;20051;-78
2021/06/11 15:06:05;;;;;;;1.83;1.70;;;;;;;20.15;85.88;94491.53;10533688;28;20032;-78
2021/06/11 15:11:06;;;;;;;1.85;1.70;;;;;;;19.63;86.80;94499.16;10533831;28;20032;-78
2021/06/11 15:16:08;;;;;;;1.95;1.48;;;;;;;19.52;88.22;94500.72;10533407;28;20028;-78
2021/06/11 15:21:08;;;;;;;2.22;1.90;;;;;;;19.63;92.45;94504.59;10533666;28;20077;-78
2021/06/11 15:26:09;;;;;;;2.58;1.70;;;;;;;19.96;94.32;94508.44;10531574;28;20384;-79
2021/06/11 15:31:10;;;;;;;3.63;1.70;;;;;;;20.06;97.02;94508.00;10531354;28;20059;-78
2021/06/11 15:36:10;;;;;;;2.67;1.77;;;;;;;20.15;97.42;94505.97;10533085;28;20351;-79
2021/06/11 15:41:10;;;;;;;8.80;2.07;;;;;;;20.55;98.60;94488.09;10532719;28;20035;-79
2021/06/11 15:46:11;;;;;;;2.60;1.98;;;;;;;20.54;96.97;94489.25;10532234;28;20680;-79
2021/06/11 15:51:12;;;;;;;3.20;2.10;;;;;;;20.72;95.38;94502.69;10531902;28;20028;-79
2021/06/11 15:56:13;;;;;;;2.58;1.80;;;;;;;20.91;90.93;94499.34;10531758;28;20031;-79
2021/06/11 16:01:13;;;;;;;2.58;1.73;;;;;;;21.03;89.36;94514.91;10532000;28;20552;-79
2021/06/11 16:06:14;;;;;;;3.23;1.90;;;;;;;20.96;87.61;94513.56;10531351;28;20027;-79
2021/06/11 16:11:14;;;;;;;3.43;2.10;;;;;;;21.02;86.49;94537.94;10531856;28;20464;-79
2021/06/11 16:16:15;;;;;;;2.78;2.05;;;;;;;20.96;86.94;94546.34;10531085;28;20286;-79
2021/06/11 16:21:15;;;;;;;6.07;3.40;;;;;;;20.87;98.14;94548.41;10531163;28;20111;-78
2021/06/11 16:26:16;;;;;;;7.43;3.40;;;;;;;20.79;100.00;94550.13;10531005;28;20293;-78
2021/06/11 16:31:16;;;;;;;7.23;3.23;;;;;;;20.60;100.00;94542.47;10530634;28;20301;-78
2021/06/11 16:36:16;;;;;;;4.57;2.60;;;;;;;20.40;100.00;94541.47;10530811;28;20302;-79
2021/06/11 16:41:17;;;;;;;5.90;3.27;;;;;;;20.00;100.00;94546.78;10530365;28;20059;-80
2021/06/11 16:46:18;;;;;;;3.88;3.42;;;;;;;19.40;100.00;94550.50;10529340;28;20036;-80
2021/06/11 16:51:18;;;;;;;6.68;4.13;;;;;;;18.59;100.00;94538.88;10527732;28;20028;-79
2021/06/11 16:56:19;;;;;;;10.57;4.50;;;;;;;17.82;100.00;94545.06;10528335;28;20036;-80
2021/06/11 17:01:21;;;;;;;5.17;4.40;;;;;;;17.57;100.00;94539.34;10537604;28;20043;-80
2021/06/11 17:06:22;;;;;;;7.93;5.18;;;;;;;17.43;100.00;94544.97;10538499;28;20294;-80
2021/06/11 17:11:22;;;;;;;12.07;5.00;;;;;;;17.42;100.00;94548.00;10537285;28;20076;-80
2021/06/11 17:16:22;;;;;;;11.68;4.72;;;;;;;17.50;100.00;94544.50;10536940;28;20035;-79
2021/06/11 17:21:23;;;;;;;6.30;3.63;;;;;;;17.58;100.00;94543.69;10536270;28;20032;-80
2021/06/11 17:26:25;;;;;;;4.73;3.40;;;;;;;17.58;100.00;94545.59;10537151;28;20086;-80
2021/06/11 17:31:25;;;;;;;5.57;4.10;;;;;;;17.68;100.00;94558.03;10533612;28;20056;-79
2021/06/11 17:36:29;;;;;;;5.60;3.60;;;;;;;17.72;100.00;94554.38;10531307;28;20036;-81
2021/06/11 17:41:31;;;;;;;3.80;3.28;;;;;;;17.80;100.00;94563.63;10531902;28;20092;-81
2021/06/11 17:46:32;;;;;;;5.20;3.05;;;;;;;17.87;100.00;94571.28;10516099;28;20535;-81
2021/06/11 17:51:32;;;;;;;3.38;3.08;;;;;;;18.01;100.00;94574.63;10506753;28;20450;-81
2021/06/11 17:56:44;;;;;;;6.72;3.78;;;;;;;18.16;100.00;94584.19;10506022;28;20106;-81
2021/06/11 18:01:57;;;;;;;6.43;4.15;;;;;;;18.25;100.00;94586.88;10513134;28;20478;-81
2021/06/11 18:07:12;;;;;;;14.60;5.07;;;;;;;18.28;100.00;94621.59;10512618;28;20498;-80
2021/06/11 18:12:24;;;;;;;5.93;4.05;;;;;;;18.20;100.00;94642.25;10508315;28;20082;-81
2021/06/11 18:17:28;;;;;;;5.75;3.63;;;;;;;18.15;100.00;94656.03;10509698;28;20020;-81
2021/06/11 18:22:42;;;;;;;4.93;3.05;;;;;;;17.98;100.00;94664.22;10512167;28;20044;-81
2021/06/11 18:27:43;;;;;;;6.93;3.95;;;;;;;17.92;100.00;94674.47;10513192;28;20119;-79
2021/06/11 18:32:44;;;;;;;5.88;2.78;;;;;;;17.88;100.00;94687.84;10507550;28;20058;-81
2021/06/11 18:37:52;;;;;;;4.30;3.00;;;;;;;17.74;100.00;94706.25;10511943;28;20035;-81
2021/06/11 18:42:55;;;;;;;3.97;3.08;;;;;;;17.67;100.00;94711.38;10510845;28;20059;-81
2021/06/11 18:48:08;;;;;;;4.07;3.00;;;;;;;17.58;100.00;94724.94;10507895;28;20031;-81
2021/06/11 18:53:09;;;;;;;7.38;4.18;;;;;;;17.60;100.00;94723.50;10530864;28;20023;-80
2021/06/11 18:58:09;;;;;;;5.07;2.78;;;;;;;17.33;100.00;94737.34;10511124;28;20463;-81
2021/06/11 19:03:18;;;;;;;4.87;3.07;;;;;;;17.08;100.00;94739.69;10515032;28;20035;-81
2021/06/11 19:08:35;;;;;;;3.97;3.05;;;;;;;16.86;100.00;94754.09;10510674;28;20306;-80
2021/06/11 19:13:35;;;;;;;3.03;2.35;;;;;;;16.57;100.00;94745.31;10515787;28;20031;-79
2021/06/11 19:18:36;;;;;;;5.53;3.75;;;;;;;16.56;100.00;94745.66;10517748;28;20027;-81
2021/06/11 19:23:39;;;;;;;6.00;3.13;;;;;;;16.42;100.00;94756.56;10531430;28;20035;-81
2021/06/11 19:28:39;;;;;;;5.82;3.90;;;;;;;16.37;100.00;94759.44;10532805;28;20423;-80
2021/06/11 19:33:42;;;;;;;6.60;4.37;;;;;;;16.32;100.00;94754.91;10531273;28;20048;-80
2021/06/11 19:38:50;;;;;;;4.93;4.03;;;;;;;16.31;100.00;94766.88;10529830;28;20023;-80
2021/06/11 19:43:51;;;;;;;7.43;3.55;;;;;;;16.33;100.00;94751.09;10529126;28;20040;-80
2021/06/11 19:49:04;;;;;;;6.65;3.47;;;;;;;16.17;100.00;94749.88;10488983;28;20779;-80
2021/06/11 19:54:18;;;;;;;6.40;3.20;;;;;;;16.18;100.00;94746.84;10529762;28;20024;-80
2021/06/11 19:59:20;;;;;;;3.95;3.33;;;;;;;16.09;100.00;94743.28;10530579;28;20030;-81
2021/06/11 20:04:20;;;;;;;6.55;3.67;;;;;;;16.04;100.00;94741.47;10529861;28;20043;-80
2021/06/11 20:09:21;;;;;;;3.73;3.20;;;;;;;16.09;100.00;94729.72;10528590;28;20046;-81
2021/06/11 20:14:22;;;;;;;5.53;3.50;;;;;;;16.10;100.00;94725.88;10529357;28;20028;-80
2021/06/11 20:19:22;;;;;;;4.72;2.92;;;;;;;16.12;100.00;94718.25;10529870;28;20036;-80
2021/06/11 20:24:23;;;;;;;8.10;2.90;;;;;;;16.10;100.00;94716.97;10530284;28;20028;-80
2021/06/11 20:29:25;;;;;;;4.23;3.10;;;;;;;16.18;100.00;94711.59;10529925;28;20028;-79
2021/06/11 20:34:25;;;;;;;3.72;2.65;;;;;;;16.28;100.00;94696.19;10529648;28;20043;-80
2021/06/11 20:39:25;;;;;;;3.05;2.63;;;;;;;16.16;100.00;94697.56;10529666;28;20036;-80
2021/06/11 20:44:26;;;;;;;4.60;2.67;;;;;;;16.33;100.00;94682.50;10523184;28;20032;-80
2021/06/11 20:49:26;;;;;;;5.50;2.90;;;;;;;16.27;100.00;94668.28;10496028;28;20128;-80
2021/06/11 20:54:27;;;;;;;4.30;2.67;;;;;;;16.34;100.00;94668.63;10529429;28;20507;-81
2021/06/11 20:59:29;;;;;;;3.70;3.08;;;;;;;16.38;100.00;94661.47;10529243;28;20046;-81
2021/06/11 21:04:30;;;;;;;4.45;2.85;;;;;;;16.31;100.00;94661.13;10529687;28;20024;-81
2021/06/11 21:09:30;;;;;;;4.75;3.28;;;;;;;16.09;100.00;94661.13;10529470;28;20031;-81
2021/06/11 21:14:32;;;;;;;4.00;3.57;;;;;;;15.96;100.00;94654.69;10528854;28;20170;-81
2021/06/11 21:19:32;;;;;;;13.95;2.58;;;;;;;15.98;100.00;94663.31;10529755;28;20024;-81
2021/06/11 21:24:33;;;;;;;4.00;2.73;;;;;;;15.95;100.00;94666.63;10529085;28;20032;-81
2021/06/11 21:29:33;;;;;;;4.35;3.08;;;;;;;15.81;100.00;94656.66;10528349;28;20039;-81
2021/06/11 21:34:34;;;;;;;4.25;3.08;;;;;;;15.73;100.00;94665.50;10525507;28;20052;-81
2021/06/11 21:39:35;;;;;;;6.35;3.42;;;;;;;15.73;100.00;94665.50;10527502;28;20028;-81
2021/06/11 21:44:35;;;;;;;5.10;3.10;;;;;;;15.62;100.00;94667.63;10531531;28;20464;-81
2021/06/11 21:49:36;;;;;;;4.70;3.00;;;;;;;15.60;100.00;94671.75;10537260;28;20113;-81
2021/06/11 21:54:36;;;;;;;4.73;3.07;;;;;;;15.51;100.00;94674.41;10536484;28;20514;-81
2021/06/11 21:59:36;;;;;;;4.93;3.87;;;;;;;15.44;100.00;94669.41;10533314;28;20047;-81
2021/06/11 22:04:37;;;;;;;5.38;4.05;;;;;;;15.50;100.00;94667.38;10494691;28;20028;-81
2021/06/11 22:09:37;;;;;;;7.10;4.93;;;;;;;15.35;100.00;94663.91;10534767;28;20032;-81
2021/06/11 22:14:38;;;;;;;7.00;4.73;;;;;;;15.27;100.00;94667.34;10502163;28;20274;-81
2021/06/11 22:19:38;;;;;;;9.80;3.80;;;;;;;14.97;100.00;94669.59;10492746;28;20119;-81
2021/06/11 22:24:38;;;;;;;6.50;5.00;;;;;;;15.11;100.00;94674.19;10492942;28;20037;-81
2021/06/11 22:29:39;;;;;;;8.63;5.05;;;;;;;14.92;100.00;94680.53;10492737;28;20036;-80
2021/06/11 22:34:39;;;;;;;6.83;5.00;;;;;;;14.98;100.00;94690.13;10490851;28;20056;-81
2021/06/11 22:39:39;;;;;;;5.60;4.90;;;;;;;14.93;100.00;94686.72;10492731;28;20540;-80
2021/06/11 22:44:40;;;;;;;7.53;5.80;;;;;;;14.76;100.00;94690.84;10517303;28;20290;-81
2021/06/11 22:49:40;;;;;;;8.07;5.63;;;;;;;14.74;100.00;94694.97;10532836;28;20775;-81
2021/06/11 22:54:40;;;;;;;8.17;5.40;;;;;;;14.55;100.00;94692.31;10500768;28;20536;-81
2021/06/11 22:59:41;;;;;;;7.50;6.30;;;;;;;14.40;100.00;94702.31;10491148;28;20153;-81
2021/06/11 23:04:41;;;;;;;7.00;5.23;;;;;;;14.23;100.00;94716.38;10490365;28;20036;-80
2021/06/11 23:09:42;;;;;;;10.17;6.03;;;;;;;14.07;100.00;94706.94;10490633;28;20486;-80
2021/06/11 23:14:42;;;;;;;7.30;5.65;;;;;;;14.14;100.00;94707.38;10490222;28;20282;-81